createdAt,value
2023-05-14T00:01:32.994Z,6.40
2023-05-14T00:05:05.087Z,5.70
2023-05-14T00:08:09.120Z,7.70
2023-05-14T00:11:38.233Z,5.40
2023-05-14T00:14:42.029Z,7.50
2023-05-14T00:18:01.085Z,4.97
2023-05-14T00:21:21.199Z,4.83
2023-05-14T00:24:52.067Z,6.70
2023-05-14T00:27:56.096Z,4.35
2023-05-14T00:31:15.143Z,6.55
2023-05-14T00:34:19.128Z,7.40
2023-05-14T00:37:52.389Z,5.20
2023-05-14T00:40:56.181Z,5.75
2023-05-14T00:44:12.120Z,5.67
2023-05-14T00:47:28.243Z,6.65
2023-05-14T00:50:47.227Z,6.53
2023-05-14T00:54:16.318Z,5.27
2023-05-14T00:57:38.192Z,5.70
2023-05-14T01:00:42.433Z,4.57
2023-05-14T01:04:13.328Z,5.00
2023-05-14T01:07:30.257Z,5.40
2023-05-14T01:11:00.404Z,6.45
2023-05-14T01:14:19.331Z,5.70
2023-05-14T01:17:47.371Z,5.10
2023-05-14T01:21:03.348Z,7.70
2023-05-14T01:24:33.401Z,5.95
2023-05-14T01:27:49.352Z,5.40
2023-05-14T01:31:20.388Z,4.80
2023-05-14T01:34:36.339Z,4.15
2023-05-14T01:38:04.325Z,5.93
2023-05-14T01:41:21.434Z,6.55
2023-05-14T01:44:52.315Z,5.55
2023-05-14T01:48:20.625Z,4.83
2023-05-14T01:51:42.407Z,7.57
2023-05-14T01:54:46.415Z,5.83
2023-05-14T01:58:18.427Z,4.27
2023-05-14T02:01:22.478Z,7.70
2023-05-14T02:04:41.429Z,4.30
2023-05-14T02:07:45.317Z,5.85
2023-05-14T02:11:04.423Z,7.43
2023-05-14T02:14:39.455Z,5.70
2023-05-14T02:17:43.457Z,7.60
2023-05-14T02:21:02.526Z,7.37
2023-05-14T02:24:06.531Z,6.37
2023-05-14T02:27:25.499Z,4.47
2023-05-14T02:30:45.652Z,5.80
2023-05-14T02:34:04.708Z,5.80
2023-05-14T02:37:08.588Z,8.75
2023-05-14T02:40:27.639Z,8.65
2023-05-14T02:43:31.648Z,7.70
2023-05-14T02:47:03.702Z,6.27
2023-05-14T02:50:36.690Z,8.20
2023-05-14T02:53:52.551Z,6.93
2023-05-14T02:57:08.561Z,6.77
2023-05-14T03:00:37.706Z,6.85
2023-05-14T03:04:06.767Z,6.00
2023-05-14T03:07:25.668Z,10.90
2023-05-14T03:10:30.490Z,7.93
2023-05-14T03:13:49.620Z,6.47
2023-05-14T03:16:56.769Z,7.83
2023-05-14T03:20:28.186Z,5.35
2023-05-14T03:23:34.715Z,7.55
2023-05-14T03:26:53.757Z,5.00
2023-05-14T03:29:57.763Z,6.50
2023-05-14T03:33:16.651Z,5.87
2023-05-14T03:36:48.752Z,6.33
2023-05-14T03:40:05.718Z,5.45
2023-05-14T03:43:09.753Z,6.75
2023-05-14T03:46:25.733Z,6.37
2023-05-14T03:49:44.744Z,7.40
2023-05-14T03:53:17.043Z,5.80
2023-05-14T03:56:20.835Z,6.30
2023-05-14T03:59:39.901Z,6.05
2023-05-14T04:03:08.327Z,11.87
2023-05-14T04:06:29.773Z,6.40
2023-05-14T04:09:47.853Z,6.43
2023-05-14T04:13:05.075Z,7.00
2023-05-14T04:16:20.813Z,7.65
2023-05-14T04:19:39.964Z,6.40
2023-05-14T04:22:56.062Z,5.73
2023-05-14T04:26:31.033Z,9.70
2023-05-14T04:29:34.840Z,7.10
2023-05-14T04:32:51.011Z,6.77
2023-05-14T04:35:54.912Z,7.55
2023-05-14T04:39:10.756Z,6.67
2023-05-14T04:42:30.851Z,8.80
2023-05-14T04:45:50.065Z,8.30
2023-05-14T04:48:53.891Z,5.73
2023-05-14T04:52:09.885Z,7.00
2023-05-14T04:55:14.018Z,6.80
2023-05-14T04:58:49.039Z,5.40
2023-05-14T05:01:53.026Z,7.45
2023-05-14T05:05:11.845Z,8.60
2023-05-14T05:08:16.033Z,7.80
2023-05-14T05:11:31.851Z,6.97
2023-05-14T05:14:49.118Z,8.00
2023-05-14T05:18:08.149Z,8.30
2023-05-14T05:21:11.972Z,6.00
2023-05-14T05:24:31.147Z,9.83
2023-05-14T05:27:35.287Z,8.80
2023-05-14T05:31:10.251Z,7.00
2023-05-14T05:34:26.130Z,8.07
2023-05-14T05:37:58.585Z,7.67
2023-05-14T05:41:01.247Z,8.45
2023-05-14T05:44:17.198Z,7.63
2023-05-14T05:47:35.187Z,8.05
2023-05-14T05:50:54.080Z,5.97
2023-05-14T05:53:58.166Z,8.33
2023-05-14T05:57:17.241Z,9.55
2023-05-14T06:00:29.154Z,8.60
2023-05-14T06:03:59.262Z,6.03
2023-05-14T06:07:03.187Z,6.10
2023-05-14T06:10:31.293Z,5.53
2023-05-14T06:13:35.286Z,7.05
2023-05-14T06:16:54.400Z,7.47
2023-05-14T06:20:17.229Z,8.00
2023-05-14T06:23:33.257Z,7.15
2023-05-14T06:26:37.226Z,6.60
2023-05-14T06:29:56.250Z,6.87
2023-05-14T06:33:03.310Z,5.60
2023-05-14T06:36:33.379Z,6.20
2023-05-14T06:39:37.325Z,5.50
2023-05-14T06:42:58.415Z,5.80
2023-05-14T06:46:15.367Z,10.50
2023-05-14T06:49:46.320Z,8.40
2023-05-14T06:53:06.345Z,7.30
2023-05-14T06:56:25.377Z,8.97
2023-05-14T06:59:29.382Z,8.80
2023-05-14T07:02:48.547Z,8.90
2023-05-14T07:05:52.395Z,6.53
2023-05-14T07:09:21.256Z,6.93
2023-05-14T07:12:25.319Z,10.17
2023-05-14T07:15:44.682Z,8.40
2023-05-14T07:18:48.467Z,11.17
2023-05-14T07:22:05.519Z,9.93
2023-05-14T07:25:23.817Z,8.50
2023-05-14T07:28:58.710Z,9.20
2023-05-14T07:32:02.662Z,9.60
2023-05-14T07:35:23.542Z,5.70
2023-05-14T07:38:40.669Z,8.80
2023-05-14T07:42:27.968Z,8.13
2023-05-14T07:45:33.446Z,9.57
2023-05-14T07:49:01.591Z,6.13
2023-05-14T07:52:05.646Z,8.27
2023-05-14T07:55:37.756Z,9.50
2023-05-14T07:58:55.641Z,7.43
2023-05-14T08:02:14.523Z,7.20
2023-05-14T08:05:30.358Z,8.93
2023-05-14T08:08:37.596Z,9.90
2023-05-14T08:11:54.995Z,7.70
2023-05-14T08:15:14.590Z,8.10
2023-05-14T08:18:30.661Z,7.00
2023-05-14T08:21:34.541Z,9.00
2023-05-14T08:24:50.633Z,7.50
2023-05-14T08:28:06.604Z,6.93
2023-05-14T08:31:41.700Z,6.40
2023-05-14T08:34:57.732Z,6.30
2023-05-14T08:38:13.553Z,8.37
2023-05-14T08:41:29.658Z,7.10
2023-05-14T08:45:03.662Z,12.30
2023-05-14T08:48:20.707Z,14.00
2023-05-14T08:51:51.991Z,7.17
2023-05-14T08:54:56.783Z,8.73
2023-05-14T08:58:15.702Z,9.07
2023-05-14T09:01:19.824Z,8.25
2023-05-14T09:04:49.694Z,8.53
2023-05-14T09:08:05.648Z,11.97
2023-05-14T09:11:24.756Z,11.43
2023-05-14T09:14:28.736Z,8.33
2023-05-14T09:17:59.870Z,5.93
2023-05-14T09:21:19.881Z,14.65
2023-05-14T09:24:47.844Z,11.30
2023-05-14T09:28:03.972Z,9.77
2023-05-14T09:31:34.881Z,8.53
2023-05-14T09:34:51.766Z,5.57
2023-05-14T09:38:23.907Z,8.87
2023-05-14T09:41:39.825Z,4.87
2023-05-14T09:44:55.913Z,6.95
2023-05-14T09:48:00.052Z,8.33
2023-05-14T09:51:17.032Z,4.60
2023-05-14T09:54:33.848Z,5.67
2023-05-14T09:57:52.987Z,6.27
2023-05-14T10:01:09.932Z,5.10
2023-05-14T10:04:39.008Z,3.87
2023-05-14T10:07:54.983Z,5.10
2023-05-14T10:11:27.056Z,4.67
2023-05-14T10:14:42.963Z,6.03
2023-05-14T10:18:16.987Z,4.93
2023-05-14T10:21:32.956Z,4.47
2023-05-14T10:25:04.961Z,4.37
2023-05-14T10:28:21.949Z,5.65
2023-05-14T10:31:54.956Z,3.53
2023-05-14T10:34:59.017Z,3.80
2023-05-14T10:38:15.071Z,5.10
2023-05-14T10:41:31.033Z,3.60
2023-05-14T10:45:03.200Z,3.90
2023-05-14T10:48:07.036Z,3.80
2023-05-14T10:51:38.191Z,3.40
2023-05-14T10:54:57.019Z,3.90
2023-05-14T10:58:25.129Z,3.80
2023-05-14T11:01:42.143Z,3.70
2023-05-14T11:05:20.120Z,3.63
2023-05-14T11:08:26.939Z,3.50
2023-05-14T11:11:52.140Z,4.40
2023-05-14T11:15:08.139Z,4.80
2023-05-14T11:18:37.313Z,5.67
2023-05-14T11:21:41.278Z,5.63
2023-05-14T11:24:57.205Z,5.67
2023-05-14T11:28:13.144Z,6.23
2023-05-14T11:31:41.284Z,7.20
2023-05-14T11:34:59.284Z,4.60
2023-05-14T11:38:18.152Z,4.43
2023-05-14T11:41:35.281Z,4.70
2023-05-14T11:48:20.213Z,4.27
2023-05-14T11:54:54.244Z,4.20
2023-05-14T12:04:46.438Z,3.90
2023-05-14T12:08:02.240Z,3.40
2023-05-14T12:11:32.261Z,3.40
2023-05-14T15:25:01.905Z,2.50
2023-05-14T15:31:33.985Z,3.90
2023-05-14T15:34:52.704Z,2.50
2023-05-14T15:38:08.968Z,3.70
2023-05-14T15:41:43.971Z,2.80
2023-05-14T15:44:48.046Z,5.00
2023-05-14T15:48:06.958Z,2.20
2023-05-14T15:51:10.958Z,7.70
2023-05-14T15:54:27.039Z,2.80
2023-05-14T15:57:47.200Z,2.85
2023-05-14T16:04:21.207Z,2.70
2023-05-14T16:07:37.018Z,2.77
2023-05-14T16:11:09.976Z,2.97
2023-05-14T16:14:27.116Z,4.55
2023-05-14T16:17:58.209Z,4.07
2023-05-14T16:21:02.085Z,2.75
2023-05-14T16:24:33.180Z,2.40
2023-05-14T16:27:49.136Z,3.90
2023-05-14T16:31:21.309Z,4.23
2023-05-14T16:34:25.160Z,2.60
2023-05-14T16:37:41.042Z,2.83
2023-05-14T16:40:33.730Z,2.80
2023-05-14T16:43:53.157Z,2.90
2023-05-14T16:47:13.205Z,4.30
2023-05-14T16:50:32.079Z,8.33
2023-05-14T16:53:36.174Z,2.30
2023-05-14T16:57:07.147Z,3.53
2023-05-14T17:00:11.141Z,4.20
2023-05-14T17:03:43.267Z,3.33
2023-05-14T17:06:47.199Z,3.33
2023-05-14T17:10:03.287Z,2.10
2023-05-14T17:13:20.132Z,3.03
2023-05-14T17:16:39.215Z,4.03
2023-05-14T17:20:00.476Z,6.50
2023-05-14T17:23:16.184Z,2.70
2023-05-14T17:26:20.189Z,2.70
2023-05-14T17:29:39.299Z,5.07
2023-05-14T17:32:56.439Z,2.90
2023-05-14T17:36:31.242Z,9.53
2023-05-14T17:39:35.209Z,7.07
2023-05-14T17:42:54.245Z,2.83
2023-05-14T17:45:58.329Z,3.27
2023-05-14T17:49:29.281Z,6.53
2023-05-14T17:52:46.329Z,2.50
2023-05-14T17:56:02.418Z,2.73
2023-05-14T17:59:08.423Z,3.27
2023-05-14T18:02:27.461Z,2.93
2023-05-14T18:05:46.430Z,2.50
2023-05-14T18:09:03.473Z,4.90
2023-05-14T18:12:19.390Z,3.20
2023-05-14T18:15:23.580Z,3.63
2023-05-14T18:18:39.439Z,5.37
2023-05-14T18:21:43.431Z,3.43
2023-05-14T18:25:13.012Z,4.55
2023-05-14T18:28:20.395Z,2.93
2023-05-14T18:31:39.537Z,5.90
2023-05-14T18:34:43.443Z,4.90
2023-05-14T18:38:02.514Z,3.63
2023-05-14T18:41:19.815Z,3.83
2023-05-14T18:44:38.440Z,3.77
2023-05-14T18:47:54.672Z,4.23
2023-05-14T18:51:25.561Z,4.43
2023-05-14T18:54:33.654Z,3.23
2023-05-14T18:58:06.599Z,5.07
2023-05-14T19:01:11.650Z,6.40
2023-05-14T19:04:33.318Z,6.40
2023-05-14T19:07:48.652Z,7.13
2023-05-14T19:11:04.578Z,10.00
2023-05-14T19:14:21.739Z,9.73
2023-05-14T19:17:40.559Z,7.90
2023-05-14T19:20:45.665Z,9.27
2023-05-14T19:24:02.654Z,12.27
2023-05-14T19:27:06.685Z,7.85
2023-05-14T19:30:44.758Z,12.20
2023-05-14T19:33:48.523Z,9.23
2023-05-14T19:37:21.855Z,8.57
2023-05-14T19:41:04.731Z,11.63
2023-05-14T19:44:22.770Z,9.25
2023-05-14T19:47:44.119Z,11.07
2023-05-14T19:51:03.941Z,10.97
2023-05-14T19:54:10.837Z,9.80
2023-05-14T19:57:46.885Z,12.00
2023-05-14T20:01:04.333Z,9.53
2023-05-14T20:04:39.927Z,9.07
2023-05-14T20:07:43.705Z,9.30
2023-05-14T20:11:05.816Z,14.50
2023-05-14T20:14:09.701Z,9.83
2023-05-14T20:17:28.847Z,10.33
2023-05-14T20:20:46.755Z,10.47
2023-05-14T20:24:05.946Z,10.80
2023-05-14T20:27:12.770Z,16.83
2023-05-14T20:30:31.856Z,13.77
2023-05-14T20:33:35.851Z,12.83
2023-05-14T20:37:08.829Z,11.40
2023-05-14T20:40:27.847Z,12.95
2023-05-14T20:43:46.942Z,12.63
2023-05-14T20:46:50.926Z,11.47
2023-05-14T20:50:06.839Z,13.27
2023-05-14T20:53:26.937Z,13.43
2023-05-14T20:56:58.915Z,12.85
2023-05-14T21:00:15.012Z,13.90
2023-05-14T21:03:34.225Z,12.73
2023-05-14T21:06:37.888Z,14.53
2023-05-14T21:10:09.979Z,12.93
2023-05-14T21:13:14.186Z,11.20
2023-05-14T21:16:31.036Z,12.47
2023-05-14T21:19:34.911Z,13.77
2023-05-14T21:22:53.990Z,13.67
2023-05-14T21:26:14.039Z,15.50
2023-05-14T21:29:47.066Z,14.10
2023-05-14T21:32:51.029Z,13.70
2023-05-14T21:36:10.110Z,16.83
2023-05-14T21:39:26.102Z,14.37
2023-05-14T21:42:58.169Z,14.57
2023-05-14T21:46:01.950Z,16.70
2023-05-14T21:49:18.248Z,19.87
2023-05-14T21:52:34.030Z,19.23
2023-05-14T21:56:05.168Z,17.15
2023-05-14T21:59:22.224Z,17.15
2023-05-14T22:02:41.119Z,17.10
2023-05-14T22:06:00.860Z,20.63
2023-05-14T22:09:06.206Z,19.40
2023-05-14T22:12:25.128Z,20.53
2023-05-14T22:15:45.146Z,18.50
2023-05-14T22:19:01.125Z,17.00
2023-05-14T22:22:05.174Z,21.00
2023-05-14T22:25:39.234Z,19.87
2023-05-14T22:28:43.188Z,19.63
2023-05-14T22:32:18.150Z,18.60
2023-05-14T22:35:22.298Z,20.80
2023-05-14T22:38:41.146Z,19.15
2023-05-14T22:41:45.211Z,20.23
2023-05-14T22:45:01.105Z,20.47
2023-05-14T22:48:18.348Z,20.40
2023-05-14T22:51:37.195Z,18.80
2023-05-14T22:54:41.287Z,18.80
2023-05-14T22:58:10.226Z,19.80
2023-05-14T23:01:14.292Z,19.70
2023-05-14T23:04:44.463Z,20.00
2023-05-14T23:08:00.165Z,19.07
2023-05-14T23:11:20.305Z,20.10
2023-05-14T23:14:24.305Z,18.37
2023-05-14T23:17:55.478Z,20.20
2023-05-14T23:21:12.441Z,24.17
2023-05-14T23:24:31.290Z,22.07
2023-05-14T23:27:35.449Z,21.20
2023-05-14T23:30:51.448Z,21.53
2023-05-14T23:33:55.359Z,20.87
2023-05-14T23:37:31.210Z,21.77
2023-05-14T23:40:35.475Z,21.43
2023-05-14T23:44:06.434Z,21.30
2023-05-14T23:47:10.514Z,20.40
2023-05-14T23:50:29.350Z,28.70
2023-05-14T23:53:49.447Z,21.95
2023-05-14T23:57:17.414Z,23.10
